createdAt,value
2022-10-16T00:01:14.229Z,52.83
2022-10-16T00:03:41.844Z,52.58
2022-10-16T00:06:09.344Z,52.46
2022-10-16T00:08:36.521Z,52.68
2022-10-16T00:11:23.123Z,52.63
2022-10-16T00:13:51.009Z,52.86
2022-10-16T00:16:18.351Z,52.90
2022-10-16T00:18:45.238Z,52.66
2022-10-16T00:21:15.336Z,52.68
2022-10-16T00:23:42.255Z,52.95
2022-10-16T00:26:11.747Z,53.14
2022-10-16T00:28:38.651Z,52.91
2022-10-16T00:31:12.202Z,53.14
2022-10-16T00:33:39.528Z,52.66
2022-10-16T00:36:07.123Z,52.99
2022-10-16T00:38:33.991Z,52.72
2022-10-16T00:41:01.110Z,52.88
2022-10-16T00:43:47.773Z,52.73
2022-10-16T00:46:23.123Z,52.81
2022-10-16T00:49:11.896Z,52.78
2022-10-16T00:51:41.275Z,52.80
2022-10-16T00:54:14.473Z,52.96
2022-10-16T00:56:41.832Z,52.92
2022-10-16T00:59:16.313Z,52.92
2022-10-16T01:01:43.294Z,52.81
2022-10-16T01:04:10.058Z,52.92
2022-10-16T01:06:55.850Z,53.02
2022-10-16T01:09:45.345Z,52.72
2022-10-16T01:12:21.614Z,52.96
2022-10-16T01:14:56.538Z,53.12
2022-10-16T01:17:25.529Z,53.08
2022-10-16T01:20:07.668Z,53.16
2022-10-16T01:22:40.014Z,52.82
2022-10-16T01:25:09.174Z,52.99
2022-10-16T01:27:36.177Z,53.01
2022-10-16T01:30:10.981Z,53.09
2022-10-16T01:32:58.361Z,52.97
2022-10-16T01:35:33.551Z,53.00
2022-10-16T01:38:12.708Z,53.26
2022-10-16T01:40:43.557Z,52.83
2022-10-16T01:43:13.601Z,52.95
2022-10-16T01:45:40.372Z,52.99
2022-10-16T01:48:08.896Z,53.14
2022-10-16T01:50:38.316Z,52.98
2022-10-16T01:53:05.221Z,52.71
2022-10-16T01:55:34.773Z,53.05
2022-10-16T01:58:01.692Z,53.16
2022-10-16T02:00:28.764Z,53.38
2022-10-16T02:02:56.276Z,53.18
2022-10-16T02:05:27.508Z,53.28
2022-10-16T02:07:54.312Z,53.14
2022-10-16T02:10:21.833Z,53.25
2022-10-16T02:13:10.591Z,52.90
2022-10-16T02:15:37.619Z,53.38
2022-10-16T02:18:08.008Z,53.33
2022-10-16T02:20:45.407Z,53.22
2022-10-16T02:23:13.380Z,53.13
2022-10-16T02:25:41.408Z,53.27
2022-10-16T02:28:10.481Z,53.20
2022-10-16T02:31:01.831Z,53.06
2022-10-16T02:33:28.627Z,52.99
2022-10-16T02:35:55.691Z,53.05
2022-10-16T02:38:22.641Z,53.22
2022-10-16T02:40:49.642Z,52.96
2022-10-16T02:43:16.399Z,52.91
2022-10-16T02:45:43.403Z,53.21
2022-10-16T02:48:10.218Z,52.88
2022-10-16T02:50:37.250Z,53.40
2022-10-16T02:53:03.991Z,52.95
2022-10-16T02:55:31.448Z,53.24
2022-10-16T02:57:58.241Z,53.14
2022-10-16T03:00:25.256Z,53.32
2022-10-16T03:02:51.989Z,52.85
2022-10-16T03:05:19.141Z,53.35
2022-10-16T03:07:45.985Z,53.20
2022-10-16T03:10:13.141Z,53.13
2022-10-16T03:12:39.889Z,53.30
2022-10-16T03:15:08.045Z,53.51
2022-10-16T03:17:34.888Z,53.27
2022-10-16T03:20:01.885Z,53.49
2022-10-16T03:22:28.682Z,53.08
2022-10-16T03:24:55.724Z,52.98
2022-10-16T03:27:22.460Z,53.05
2022-10-16T03:29:49.496Z,53.17
2022-10-16T03:32:16.317Z,53.40
2022-10-16T03:34:43.344Z,53.30
2022-10-16T03:37:10.146Z,53.25
2022-10-16T03:39:37.104Z,53.46
2022-10-16T03:42:03.869Z,53.08
2022-10-16T03:44:31.007Z,53.44
2022-10-16T03:46:57.768Z,53.46
2022-10-16T03:49:24.781Z,53.48
2022-10-16T03:51:51.556Z,53.55
2022-10-16T03:54:18.588Z,53.19
2022-10-16T03:56:45.335Z,53.43
2022-10-16T03:59:12.347Z,53.17
2022-10-16T04:01:39.110Z,53.54
2022-10-16T04:04:06.152Z,53.26
2022-10-16T04:06:32.916Z,53.11
2022-10-16T04:08:59.980Z,53.21
2022-10-16T04:11:26.735Z,53.37
2022-10-16T04:13:53.739Z,53.55
2022-10-16T04:16:20.615Z,53.25
2022-10-16T04:18:47.592Z,53.15
2022-10-16T04:21:14.357Z,53.12
2022-10-16T04:23:41.323Z,53.19
2022-10-16T04:26:08.071Z,53.53
2022-10-16T04:28:35.190Z,53.22
2022-10-16T04:31:05.088Z,53.24
2022-10-16T04:33:32.167Z,53.50
2022-10-16T04:35:59.736Z,53.48
2022-10-16T04:38:26.859Z,53.27
2022-10-16T04:40:53.837Z,53.36
2022-10-16T04:43:21.000Z,53.33
2022-10-16T04:45:48.039Z,53.47
2022-10-16T04:48:15.034Z,53.39
2022-10-16T04:50:42.214Z,53.45
2022-10-16T04:53:09.471Z,53.29
2022-10-16T04:55:36.253Z,53.26
2022-10-16T04:58:03.266Z,53.85
2022-10-16T05:00:30.056Z,53.69
2022-10-16T05:02:57.284Z,53.88
2022-10-16T05:05:24.154Z,53.45
2022-10-16T05:07:51.206Z,53.66
2022-10-16T05:10:18.063Z,53.55
2022-10-16T05:12:45.124Z,53.34
2022-10-16T05:15:11.963Z,53.64
2022-10-16T05:17:42.507Z,53.75
2022-10-16T05:20:12.162Z,53.47
2022-10-16T05:22:39.150Z,53.74
2022-10-16T05:25:06.329Z,53.48
2022-10-16T05:27:33.360Z,53.57
2022-10-16T05:30:00.131Z,53.65
2022-10-16T05:32:27.105Z,53.49
2022-10-16T05:34:53.928Z,53.58
2022-10-16T05:37:20.894Z,53.55
2022-10-16T05:39:47.665Z,53.93
2022-10-16T05:42:15.616Z,53.34
2022-10-16T05:44:42.425Z,53.68
2022-10-16T05:47:09.454Z,53.86
2022-10-16T05:49:39.075Z,53.43
2022-10-16T05:52:08.659Z,53.41
2022-10-16T05:54:35.405Z,53.77
2022-10-16T05:57:03.144Z,53.71
2022-10-16T05:59:29.896Z,53.83
2022-10-16T06:01:56.877Z,53.92
2022-10-16T06:04:23.704Z,53.74
2022-10-16T06:06:50.705Z,54.19
2022-10-16T06:09:17.460Z,53.98
2022-10-16T06:11:44.460Z,54.08
2022-10-16T06:14:11.245Z,54.06
2022-10-16T06:16:38.392Z,53.76
2022-10-16T06:19:07.416Z,53.90
2022-10-16T06:21:34.704Z,54.18
2022-10-16T06:24:01.614Z,53.90
2022-10-16T06:26:29.708Z,53.87
2022-10-16T06:28:57.288Z,53.97
2022-10-16T06:31:28.256Z,54.12
2022-10-16T06:33:55.228Z,53.92
2022-10-16T06:36:22.272Z,53.78
2022-10-16T06:38:49.050Z,54.12
2022-10-16T06:41:17.664Z,54.26
2022-10-16T06:43:46.127Z,53.83
2022-10-16T06:46:14.076Z,54.08
2022-10-16T06:48:40.873Z,54.08
2022-10-16T06:51:11.419Z,54.05
2022-10-16T06:54:00.985Z,53.81
2022-10-16T06:56:28.279Z,53.94
2022-10-16T06:58:55.126Z,53.69
2022-10-16T07:01:23.619Z,53.71
2022-10-16T07:03:50.527Z,53.79
2022-10-16T07:06:19.205Z,53.80
2022-10-16T07:08:47.259Z,53.77
2022-10-16T07:11:16.495Z,53.71
2022-10-16T07:13:44.242Z,53.91
2022-10-16T07:16:19.935Z,53.49
2022-10-16T07:18:47.587Z,53.26
2022-10-16T07:21:18.771Z,53.47
2022-10-16T07:23:45.608Z,53.57
2022-10-16T07:26:12.699Z,53.58
2022-10-16T07:28:40.798Z,53.45
2022-10-16T07:31:12.759Z,53.66
2022-10-16T07:33:40.446Z,53.83
2022-10-16T07:36:09.587Z,53.71
2022-10-16T07:38:38.972Z,53.77
2022-10-16T07:41:07.468Z,53.81
2022-10-16T07:43:34.369Z,53.68
2022-10-16T07:46:04.018Z,53.62
2022-10-16T07:48:34.029Z,53.19
2022-10-16T07:51:01.776Z,53.34
2022-10-16T07:53:28.604Z,53.20
2022-10-16T07:56:03.411Z,53.06
2022-10-16T07:58:30.358Z,52.98
2022-10-16T08:00:57.703Z,52.90
2022-10-16T08:03:25.154Z,52.95
2022-10-16T08:05:52.403Z,53.04
2022-10-16T08:08:19.407Z,52.88
2022-10-16T08:10:46.414Z,53.07
2022-10-16T08:13:16.184Z,52.85
2022-10-16T08:15:44.400Z,52.79
2022-10-16T08:18:11.927Z,53.22
2022-10-16T08:20:39.185Z,53.07
2022-10-16T08:23:06.145Z,52.72
2022-10-16T08:25:40.107Z,52.94
2022-10-16T08:28:07.627Z,52.35
2022-10-16T08:30:34.844Z,52.23
2022-10-16T08:33:01.952Z,52.96
2022-10-16T08:35:29.035Z,52.06
2022-10-16T08:37:55.781Z,52.25
2022-10-16T08:40:27.981Z,52.49
2022-10-16T08:43:17.723Z,52.18
2022-10-16T08:45:57.035Z,52.05
2022-10-16T08:48:37.474Z,52.18
2022-10-16T08:51:04.504Z,51.91
2022-10-16T08:53:37.813Z,51.68
2022-10-16T08:56:04.977Z,51.75
2022-10-16T08:58:31.748Z,51.85
2022-10-16T09:01:02.919Z,52.04
2022-10-16T09:03:53.331Z,51.55
2022-10-16T09:06:38.792Z,51.46
2022-10-16T09:09:24.365Z,51.58
2022-10-16T09:12:01.598Z,51.86
2022-10-16T09:15:06.134Z,51.49
2022-10-16T09:17:36.297Z,51.58
2022-10-16T09:20:51.509Z,51.73
2022-10-16T09:23:29.269Z,51.28
2022-10-16T09:25:56.309Z,51.64
2022-10-16T09:28:23.394Z,51.63
2022-10-16T09:30:50.956Z,51.47
2022-10-16T09:33:24.642Z,51.08
2022-10-16T09:35:52.973Z,51.45
2022-10-16T09:38:33.797Z,51.08
2022-10-16T09:41:03.467Z,51.29
2022-10-16T09:43:37.202Z,51.04
2022-10-16T09:46:06.115Z,50.85
2022-10-16T09:48:49.047Z,51.16
2022-10-16T09:51:30.415Z,50.98
2022-10-16T09:53:58.902Z,51.30
2022-10-16T09:56:30.798Z,50.96
2022-10-16T09:58:59.462Z,50.92
2022-10-16T10:01:52.496Z,50.85
2022-10-16T10:04:24.352Z,50.81
2022-10-16T10:06:55.917Z,50.74
2022-10-16T10:09:25.544Z,50.75
2022-10-16T10:11:56.998Z,50.65
2022-10-16T10:14:38.876Z,50.86
2022-10-16T10:17:05.841Z,50.30
2022-10-16T10:19:52.609Z,51.08
2022-10-16T10:22:47.072Z,50.50
2022-10-16T10:25:14.334Z,50.42
2022-10-16T10:27:41.210Z,50.40
2022-10-16T10:33:05.834Z,50.34
2022-10-16T10:35:36.147Z,50.38
2022-10-16T10:38:40.508Z,50.65
2022-10-16T10:41:26.634Z,49.98
2022-10-16T10:44:05.581Z,49.96
2022-10-16T10:46:52.132Z,50.24
2022-10-16T10:49:28.208Z,50.55
2022-10-16T10:52:26.188Z,50.07
2022-10-16T10:55:21.581Z,50.16
2022-10-16T10:57:54.609Z,49.87
2022-10-16T11:00:32.096Z,50.35
2022-10-16T11:03:42.432Z,50.31
2022-10-16T11:06:17.297Z,50.27
2022-10-16T11:08:46.252Z,50.04
2022-10-16T11:11:50.744Z,50.05
2022-10-16T11:14:22.333Z,50.30
2022-10-16T11:16:57.007Z,49.92
2022-10-16T11:19:37.672Z,49.91
2022-10-16T11:22:13.884Z,50.15
2022-10-16T11:24:45.334Z,50.07
2022-10-16T11:27:15.805Z,49.91
2022-10-16T11:29:48.163Z,50.54
2022-10-16T11:32:25.264Z,49.91
2022-10-16T11:34:54.945Z,50.05
2022-10-16T11:37:25.464Z,50.39
2022-10-16T11:39:53.560Z,50.23
2022-10-16T11:42:46.100Z,49.92
2022-10-16T11:45:27.564Z,50.08
2022-10-16T11:48:15.908Z,50.03
2022-10-16T11:50:55.136Z,50.39
2022-10-16T11:53:35.729Z,49.67
2022-10-16T11:56:02.524Z,50.14
2022-10-16T11:58:40.533Z,49.63
2022-10-16T12:01:10.475Z,50.21
2022-10-16T12:04:06.396Z,50.27
2022-10-16T12:06:41.984Z,49.76
2022-10-16T12:09:29.028Z,49.67
2022-10-16T12:11:55.870Z,49.83
2022-10-16T12:17:37.985Z,49.95
2022-10-16T12:20:14.500Z,49.80
2022-10-16T12:22:52.266Z,49.99
2022-10-16T12:25:23.329Z,49.34
2022-10-16T12:28:18.603Z,49.64
2022-10-16T12:30:54.092Z,49.76
2022-10-16T12:33:21.999Z,49.35
2022-10-16T12:35:49.049Z,49.60
2022-10-16T12:38:48.335Z,49.42
2022-10-16T12:41:25.716Z,49.76
2022-10-16T12:43:52.507Z,49.64
2022-10-16T12:46:19.522Z,49.86
2022-10-16T12:49:02.197Z,49.23
2022-10-16T12:51:33.274Z,49.60
2022-10-16T12:54:01.188Z,49.20
2022-10-16T12:56:52.852Z,49.65
2022-10-16T12:59:22.658Z,49.18
2022-10-16T13:01:52.321Z,49.52
2022-10-16T13:04:29.594Z,49.50
2022-10-16T13:07:35.838Z,49.13
2022-10-16T13:10:33.527Z,49.57
2022-10-16T13:13:38.981Z,48.98
2022-10-16T13:16:09.309Z,49.24
2022-10-16T13:18:55.091Z,49.42
2022-10-16T13:21:47.946Z,49.11
2022-10-16T13:24:20.650Z,49.09
2022-10-16T13:26:53.545Z,48.92
2022-10-16T13:29:20.791Z,48.90
2022-10-16T13:31:47.600Z,49.16
2022-10-16T13:34:18.377Z,48.87
2022-10-16T13:36:52.640Z,49.00
2022-10-16T13:39:30.353Z,49.07
2022-10-16T13:42:27.027Z,49.01
2022-10-16T13:44:56.093Z,48.74
2022-10-16T13:47:28.052Z,49.20
2022-10-16T13:50:12.376Z,49.10
2022-10-16T13:52:39.287Z,48.85
2022-10-16T13:55:16.868Z,48.83
2022-10-16T13:57:43.767Z,48.97
2022-10-16T14:00:20.087Z,49.02
2022-10-16T14:02:46.923Z,48.54
2022-10-16T14:05:14.884Z,48.61
2022-10-16T14:07:41.790Z,48.61
2022-10-16T14:10:24.021Z,49.18
2022-10-16T14:13:01.703Z,48.75
2022-10-16T14:15:28.701Z,49.09
2022-10-16T14:17:55.470Z,49.06
2022-10-16T14:20:26.523Z,48.95
2022-10-16T14:23:01.307Z,48.97
2022-10-16T14:25:30.563Z,48.78
2022-10-16T14:27:59.968Z,49.13
2022-10-16T14:30:26.884Z,48.97
2022-10-16T14:33:05.432Z,49.05
2022-10-16T14:35:34.856Z,49.42
2022-10-16T14:38:02.850Z,49.05
2022-10-16T14:40:31.953Z,48.93
2022-10-16T14:42:59.279Z,49.09
2022-10-16T14:45:28.491Z,49.12
2022-10-16T14:48:06.838Z,49.33
2022-10-16T14:50:33.759Z,49.15
2022-10-16T14:53:00.958Z,49.26
2022-10-16T14:55:27.760Z,49.32
2022-10-16T14:57:58.283Z,49.12
2022-10-16T15:00:27.595Z,49.41
2022-10-16T15:02:54.745Z,49.37
2022-10-16T15:05:23.343Z,48.98
2022-10-16T15:07:51.955Z,49.22
2022-10-16T15:10:18.934Z,49.29
2022-10-16T15:12:46.010Z,49.41
2022-10-16T15:15:24.834Z,49.31
2022-10-16T15:17:57.131Z,49.42
2022-10-16T15:20:28.278Z,49.21
2022-10-16T15:22:55.274Z,49.05
2022-10-16T15:25:44.247Z,49.52
2022-10-16T15:28:11.606Z,49.41
2022-10-16T15:30:38.555Z,49.25
2022-10-16T15:33:06.134Z,49.43
2022-10-16T15:35:32.926Z,49.56
2022-10-16T15:38:00.046Z,49.64
2022-10-16T15:40:26.979Z,49.85
2022-10-16T15:42:53.988Z,49.53
2022-10-16T15:45:20.800Z,49.39
2022-10-16T15:47:47.825Z,49.35
2022-10-16T15:50:15.994Z,49.53
2022-10-16T15:52:43.072Z,49.79
2022-10-16T15:55:11.117Z,49.72
2022-10-16T15:57:42.334Z,49.57
2022-10-16T16:00:21.696Z,50.08
2022-10-16T16:02:53.080Z,49.37
2022-10-16T16:05:20.204Z,49.63
2022-10-16T16:07:47.168Z,50.05
2022-10-16T16:10:14.132Z,49.93
2022-10-16T16:12:41.130Z,49.66
2022-10-16T16:15:09.198Z,49.65
2022-10-16T16:17:36.406Z,49.68
2022-10-16T16:20:04.846Z,50.01
2022-10-16T16:22:32.039Z,49.96
2022-10-16T16:24:58.847Z,49.57
2022-10-16T16:27:26.537Z,49.67
2022-10-16T16:29:54.405Z,49.64
2022-10-16T16:32:21.402Z,49.77
2022-10-16T16:34:48.408Z,49.73
2022-10-16T16:37:15.364Z,50.20
2022-10-16T16:39:42.310Z,50.33
2022-10-16T16:42:11.037Z,49.92
2022-10-16T16:44:38.030Z,50.14
2022-10-16T16:47:05.805Z,49.83
2022-10-16T16:49:32.907Z,50.30
2022-10-16T16:52:00.015Z,49.92
2022-10-16T16:54:27.004Z,50.42
2022-10-16T16:56:54.144Z,50.24
2022-10-16T16:59:21.294Z,49.92
2022-10-16T17:01:51.811Z,50.01
2022-10-16T17:04:20.994Z,50.06
2022-10-16T17:06:48.006Z,50.37
2022-10-16T17:09:16.061Z,50.15
2022-10-16T17:11:43.996Z,50.15
2022-10-16T17:14:10.889Z,50.07
2022-10-16T17:16:38.889Z,50.46
2022-10-16T17:19:07.564Z,50.23
2022-10-16T17:21:35.239Z,50.18
2022-10-16T17:24:02.128Z,50.24
2022-10-16T17:26:29.473Z,50.41
2022-10-16T17:28:58.104Z,50.36
2022-10-16T17:31:27.076Z,50.16
2022-10-16T17:33:53.842Z,50.22
2022-10-16T17:36:21.137Z,50.71
2022-10-16T17:38:48.490Z,50.20
2022-10-16T17:41:15.504Z,50.68
2022-10-16T17:43:42.306Z,50.57
2022-10-16T17:46:09.832Z,50.21
2022-10-16T17:48:40.358Z,50.54
2022-10-16T17:51:08.154Z,50.72
2022-10-16T17:53:35.322Z,50.63
2022-10-16T17:56:10.406Z,50.37
2022-10-16T17:58:37.534Z,50.45
2022-10-16T18:01:18.577Z,50.71
2022-10-16T18:03:49.469Z,50.79
2022-10-16T18:06:22.484Z,50.92
2022-10-16T18:08:53.664Z,50.54
2022-10-16T18:11:20.988Z,50.34
2022-10-16T18:13:47.827Z,50.36
2022-10-16T18:16:15.416Z,50.59
2022-10-16T18:18:43.096Z,50.73
2022-10-16T18:21:11.464Z,50.84
2022-10-16T18:23:38.361Z,51.06
2022-10-16T18:26:05.897Z,50.76
2022-10-16T18:28:33.067Z,50.81
2022-10-16T18:31:18.435Z,50.60
2022-10-16T18:33:48.621Z,50.97
2022-10-16T18:36:16.602Z,50.96
2022-10-16T18:38:43.387Z,51.05
2022-10-16T18:41:10.368Z,50.80
2022-10-16T18:43:38.095Z,51.04
2022-10-16T18:46:07.199Z,51.08
2022-10-16T18:48:34.235Z,50.66
2022-10-16T18:51:14.307Z,50.89
2022-10-16T18:53:41.765Z,50.82
2022-10-16T18:56:08.795Z,51.06
2022-10-16T18:58:35.981Z,50.84
2022-10-16T19:01:05.120Z,51.38
2022-10-16T19:03:32.371Z,50.83
2022-10-16T19:06:01.220Z,51.16
2022-10-16T19:08:28.114Z,51.00
2022-10-16T19:10:55.141Z,50.87
2022-10-16T19:13:21.902Z,50.89
2022-10-16T19:15:58.046Z,51.02
2022-10-16T19:18:27.009Z,51.00
2022-10-16T19:20:54.813Z,50.92
2022-10-16T19:23:21.955Z,51.20
2022-10-16T19:25:49.003Z,51.36
2022-10-16T19:28:15.800Z,51.28
2022-10-16T19:30:45.927Z,51.03
2022-10-16T19:33:13.306Z,51.05
2022-10-16T19:35:40.847Z,51.07
2022-10-16T19:38:07.667Z,51.41
2022-10-16T19:40:34.651Z,51.63
2022-10-16T19:43:01.527Z,51.21
2022-10-16T19:45:28.509Z,51.24
2022-10-16T19:47:55.389Z,51.56
2022-10-16T19:50:22.401Z,51.37
2022-10-16T19:52:49.164Z,51.34
2022-10-16T19:55:17.698Z,51.63
2022-10-16T19:57:44.505Z,50.99
2022-10-16T20:00:12.082Z,51.37
2022-10-16T20:02:38.889Z,52.91
2022-10-16T20:05:06.473Z,52.67
2022-10-16T20:07:34.898Z,53.29
2022-10-16T20:10:02.381Z,53.12
2022-10-16T20:12:29.169Z,53.45
2022-10-16T20:14:56.201Z,53.63
2022-10-16T20:17:23.021Z,53.91
2022-10-16T20:19:49.990Z,53.87
2022-10-16T20:22:16.774Z,53.63
2022-10-16T20:24:43.850Z,53.38
2022-10-16T20:27:10.698Z,53.56
2022-10-16T20:29:37.865Z,53.79
2022-10-16T20:32:04.779Z,53.66
2022-10-16T20:34:31.832Z,53.33
2022-10-16T20:36:58.639Z,53.53
2022-10-16T20:39:25.655Z,53.57
2022-10-16T20:41:52.519Z,53.41
2022-10-16T20:44:19.505Z,53.85
2022-10-16T20:46:46.290Z,53.32
2022-10-16T20:49:28.181Z,53.99
2022-10-16T20:52:00.103Z,53.77
2022-10-16T20:54:27.135Z,53.85
2022-10-16T20:56:54.410Z,53.68
2022-10-16T20:59:21.411Z,54.09
2022-10-16T21:01:48.251Z,53.77
2022-10-16T21:04:15.415Z,53.73
2022-10-16T21:06:42.279Z,54.26
2022-10-16T21:09:10.100Z,54.10
2022-10-16T21:11:37.242Z,53.75
2022-10-16T21:14:05.365Z,54.06
2022-10-16T21:16:32.209Z,53.97
2022-10-16T21:18:59.229Z,53.91
2022-10-16T21:21:30.699Z,53.82
2022-10-16T21:23:58.225Z,54.01
2022-10-16T21:26:28.505Z,54.05
2022-10-16T21:29:06.261Z,54.09
2022-10-16T21:31:33.308Z,53.90
2022-10-16T21:34:04.641Z,53.94
2022-10-16T21:36:33.617Z,53.79
2022-10-16T21:39:06.450Z,53.86
2022-10-16T21:41:33.363Z,53.89
2022-10-16T21:44:00.472Z,53.83
2022-10-16T21:46:28.731Z,54.17
2022-10-16T21:48:56.243Z,54.04
2022-10-16T21:51:31.266Z,53.79
2022-10-16T21:53:58.209Z,53.94
2022-10-16T21:56:25.005Z,54.11
2022-10-16T21:58:52.090Z,54.01
2022-10-16T22:01:20.801Z,53.76
2022-10-16T22:03:48.406Z,54.02
2022-10-16T22:06:16.160Z,54.21
2022-10-16T22:08:43.519Z,53.70
2022-10-16T22:11:11.037Z,53.97
2022-10-16T22:13:38.536Z,53.66
2022-10-16T22:16:05.466Z,53.92
2022-10-16T22:18:32.896Z,54.00
2022-10-16T22:20:59.679Z,53.96
2022-10-16T22:23:26.751Z,53.75
2022-10-16T22:25:59.427Z,54.07
2022-10-16T22:28:26.450Z,54.11
2022-10-16T22:30:53.276Z,54.38
2022-10-16T22:33:20.813Z,53.96
2022-10-16T22:35:47.629Z,54.14
2022-10-16T22:38:14.683Z,54.23
2022-10-16T22:40:41.645Z,54.15
2022-10-16T22:43:08.673Z,54.13
2022-10-16T22:45:35.609Z,54.21
2022-10-16T22:48:02.941Z,54.03
2022-10-16T22:50:29.858Z,54.16
2022-10-16T22:52:56.948Z,53.98
2022-10-16T22:55:23.826Z,54.45
2022-10-16T22:57:50.905Z,54.10
2022-10-16T23:00:19.082Z,54.23
2022-10-16T23:02:46.227Z,54.38
2022-10-16T23:05:13.073Z,53.84
2022-10-16T23:07:40.149Z,54.04
2022-10-16T23:10:08.007Z,53.77
2022-10-16T23:12:35.768Z,53.76
2022-10-16T23:15:02.624Z,53.83
2022-10-16T23:17:29.653Z,54.11
2022-10-16T23:19:56.429Z,54.22
2022-10-16T23:22:23.403Z,54.12
2022-10-16T23:24:50.187Z,54.08
2022-10-16T23:27:17.227Z,54.56
2022-10-16T23:29:44.003Z,54.57
2022-10-16T23:32:10.986Z,54.22
2022-10-16T23:34:37.844Z,54.04
2022-10-16T23:37:06.569Z,54.46
2022-10-16T23:39:33.593Z,54.24
2022-10-16T23:42:00.577Z,54.04
2022-10-16T23:44:27.354Z,54.23
2022-10-16T23:46:54.381Z,54.35
2022-10-16T23:49:21.238Z,54.39
2022-10-16T23:51:48.256Z,54.45
2022-10-16T23:54:15.043Z,54.07
2022-10-16T23:56:42.038Z,54.53
2022-10-16T23:59:08.797Z,54.48
